sensor_id;sensor_type;location;lat;lon;timestamp;P1;durP1;ratioP1;P2;durP2;ratioP2
39300;SDS011;25019;42.626;23.380;2023-09-30T00:01:26;7.03;;;4.50;;
39300;SDS011;25019;42.626;23.380;2023-09-30T00:03:52;5.17;;;4.13;;
39300;SDS011;25019;42.626;23.380;2023-09-30T00:06:18;14.37;;;4.47;;
39300;SDS011;25019;42.626;23.380;2023-09-30T00:08:44;8.47;;;4.80;;
39300;SDS011;25019;42.626;23.380;2023-09-30T00:11:10;4.73;;;4.03;;
39300;SDS011;25019;42.626;23.380;2023-09-30T00:13:36;9.47;;;5.13;;
39300;SDS011;25019;42.626;23.380;2023-09-30T00:16:02;9.17;;;4.53;;
39300;SDS011;25019;42.626;23.380;2023-09-30T00:18:27;10.53;;;4.63;;
39300;SDS011;25019;42.626;23.380;2023-09-30T00:20:53;5.67;;;4.40;;
39300;SDS011;25019;42.626;23.380;2023-09-30T00:23:19;5.77;;;4.20;;
39300;SDS011;25019;42.626;23.380;2023-09-30T00:25:46;8.67;;;4.47;;
39300;SDS011;25019;42.626;23.380;2023-09-30T00:28:13;9.77;;;4.27;;
39300;SDS011;25019;42.626;23.380;2023-09-30T00:30:39;7.60;;;4.63;;
39300;SDS011;25019;42.626;23.380;2023-09-30T00:33:05;11.57;;;5.13;;
39300;SDS011;25019;42.626;23.380;2023-09-30T00:35:31;6.97;;;4.67;;
39300;SDS011;25019;42.626;23.380;2023-09-30T00:37:58;7.83;;;4.70;;
39300;SDS011;25019;42.626;23.380;2023-09-30T00:40:23;9.57;;;4.40;;
39300;SDS011;25019;42.626;23.380;2023-09-30T00:42:49;7.37;;;4.47;;
39300;SDS011;25019;42.626;23.380;2023-09-30T00:45:14;7.77;;;4.33;;
39300;SDS011;25019;42.626;23.380;2023-09-30T00:47:40;10.57;;;4.77;;
39300;SDS011;25019;42.626;23.380;2023-09-30T00:50:06;9.00;;;4.40;;
39300;SDS011;25019;42.626;23.380;2023-09-30T00:52:34;7.53;;;4.40;;
39300;SDS011;25019;42.626;23.380;2023-09-30T00:55:01;10.87;;;4.50;;
39300;SDS011;25019;42.626;23.380;2023-09-30T00:57:28;6.90;;;4.30;;
39300;SDS011;25019;42.626;23.380;2023-09-30T00:59:55;8.13;;;4.80;;
39300;SDS011;25019;42.626;23.380;2023-09-30T01:02:22;8.43;;;5.00;;
39300;SDS011;25019;42.626;23.380;2023-09-30T01:04:48;7.20;;;4.60;;
39300;SDS011;25019;42.626;23.380;2023-09-30T01:07:14;7.77;;;4.47;;
39300;SDS011;25019;42.626;23.380;2023-09-30T01:09:40;7.13;;;4.67;;
39300;SDS011;25019;42.626;23.380;2023-09-30T01:12:06;6.80;;;4.50;;
39300;SDS011;25019;42.626;23.380;2023-09-30T01:14:33;9.50;;;4.63;;
39300;SDS011;25019;42.626;23.380;2023-09-30T01:17:00;8.03;;;4.43;;
39300;SDS011;25019;42.626;23.380;2023-09-30T01:19:26;8.10;;;4.47;;
39300;SDS011;25019;42.626;23.380;2023-09-30T01:21:53;7.23;;;4.67;;
39300;SDS011;25019;42.626;23.380;2023-09-30T01:24:21;8.90;;;4.73;;
39300;SDS011;25019;42.626;23.380;2023-09-30T01:26:47;7.87;;;4.47;;
39300;SDS011;25019;42.626;23.380;2023-09-30T01:29:13;6.17;;;4.47;;
39300;SDS011;25019;42.626;23.380;2023-09-30T01:31:39;7.13;;;4.50;;
39300;SDS011;25019;42.626;23.380;2023-09-30T01:34:05;8.57;;;4.73;;
39300;SDS011;25019;42.626;23.380;2023-09-30T01:36:31;8.40;;;4.63;;
39300;SDS011;25019;42.626;23.380;2023-09-30T01:38:57;8.43;;;4.77;;
39300;SDS011;25019;42.626;23.380;2023-09-30T01:41:23;7.93;;;4.70;;
39300;SDS011;25019;42.626;23.380;2023-09-30T01:43:48;8.63;;;4.77;;
39300;SDS011;25019;42.626;23.380;2023-09-30T01:46:14;7.03;;;4.20;;
39300;SDS011;25019;42.626;23.380;2023-09-30T01:48:40;6.23;;;3.90;;
39300;SDS011;25019;42.626;23.380;2023-09-30T01:51:06;6.43;;;4.63;;
39300;SDS011;25019;42.626;23.380;2023-09-30T01:53:32;5.67;;;4.53;;
39300;SDS011;25019;42.626;23.380;2023-09-30T01:55:58;6.63;;;5.00;;
39300;SDS011;25019;42.626;23.380;2023-09-30T01:58:24;6.70;;;4.43;;
39300;SDS011;25019;42.626;23.380;2023-09-30T02:00:51;9.87;;;4.50;;
39300;SDS011;25019;42.626;23.380;2023-09-30T02:03:17;7.33;;;4.30;;
39300;SDS011;25019;42.626;23.380;2023-09-30T02:05:43;9.57;;;4.87;;
39300;SDS011;25019;42.626;23.380;2023-09-30T02:08:09;5.43;;;3.60;;
39300;SDS011;25019;42.626;23.380;2023-09-30T02:10:35;11.33;;;4.20;;
39300;SDS011;25019;42.626;23.380;2023-09-30T02:13:00;6.13;;;4.00;;
39300;SDS011;25019;42.626;23.380;2023-09-30T02:15:27;9.30;;;4.70;;
39300;SDS011;25019;42.626;23.380;2023-09-30T02:17:53;7.40;;;4.50;;
39300;SDS011;25019;42.626;23.380;2023-09-30T02:20:18;5.20;;;3.90;;
39300;SDS011;25019;42.626;23.380;2023-09-30T02:22:47;5.83;;;3.77;;
39300;SDS011;25019;42.626;23.380;2023-09-30T02:25:12;8.20;;;4.47;;
39300;SDS011;25019;42.626;23.380;2023-09-30T02:27:39;7.30;;;4.50;;
39300;SDS011;25019;42.626;23.380;2023-09-30T02:30:07;6.70;;;4.33;;
39300;SDS011;25019;42.626;23.380;2023-09-30T02:32:33;7.57;;;4.80;;
39300;SDS011;25019;42.626;23.380;2023-09-30T02:34:58;9.40;;;5.07;;
39300;SDS011;25019;42.626;23.380;2023-09-30T02:37:24;6.70;;;4.23;;
39300;SDS011;25019;42.626;23.380;2023-09-30T02:39:50;12.67;;;4.83;;
39300;SDS011;25019;42.626;23.380;2023-09-30T02:42:16;8.93;;;4.27;;
39300;SDS011;25019;42.626;23.380;2023-09-30T02:44:42;6.90;;;4.70;;
39300;SDS011;25019;42.626;23.380;2023-09-30T02:47:08;7.17;;;3.93;;
39300;SDS011;25019;42.626;23.380;2023-09-30T02:49:34;10.90;;;5.40;;
39300;SDS011;25019;42.626;23.380;2023-09-30T02:52:00;7.47;;;5.20;;
39300;SDS011;25019;42.626;23.380;2023-09-30T02:54:26;7.13;;;3.90;;
39300;SDS011;25019;42.626;23.380;2023-09-30T02:56:52;9.60;;;4.60;;
39300;SDS011;25019;42.626;23.380;2023-09-30T02:59:20;9.00;;;4.40;;
39300;SDS011;25019;42.626;23.380;2023-09-30T03:01:48;6.13;;;4.57;;
39300;SDS011;25019;42.626;23.380;2023-09-30T03:04:14;6.13;;;4.47;;
39300;SDS011;25019;42.626;23.380;2023-09-30T03:06:44;10.97;;;4.87;;
39300;SDS011;25019;42.626;23.380;2023-09-30T03:09:11;7.80;;;5.00;;
39300;SDS011;25019;42.626;23.380;2023-09-30T03:11:40;12.90;;;5.03;;
39300;SDS011;25019;42.626;23.380;2023-09-30T03:14:08;8.57;;;4.63;;
39300;SDS011;25019;42.626;23.380;2023-09-30T03:16:36;10.73;;;5.67;;
39300;SDS011;25019;42.626;23.380;2023-09-30T03:19:04;7.90;;;4.47;;
39300;SDS011;25019;42.626;23.380;2023-09-30T03:21:34;6.83;;;4.70;;
39300;SDS011;25019;42.626;23.380;2023-09-30T03:24:03;6.60;;;4.53;;
39300;SDS011;25019;42.626;23.380;2023-09-30T03:26:29;7.60;;;4.90;;
39300;SDS011;25019;42.626;23.380;2023-09-30T03:28:56;10.40;;;4.80;;
39300;SDS011;25019;42.626;23.380;2023-09-30T03:31:22;9.33;;;5.77;;
39300;SDS011;25019;42.626;23.380;2023-09-30T03:33:49;5.20;;;4.50;;
39300;SDS011;25019;42.626;23.380;2023-09-30T03:36:16;8.97;;;4.93;;
39300;SDS011;25019;42.626;23.380;2023-09-30T03:38:43;7.80;;;4.60;;
39300;SDS011;25019;42.626;23.380;2023-09-30T03:41:10;10.10;;;5.13;;
39300;SDS011;25019;42.626;23.380;2023-09-30T03:43:38;8.07;;;4.33;;
39300;SDS011;25019;42.626;23.380;2023-09-30T03:46:09;8.93;;;4.97;;
39300;SDS011;25019;42.626;23.380;2023-09-30T03:48:37;7.90;;;4.57;;
39300;SDS011;25019;42.626;23.380;2023-09-30T03:51:09;7.37;;;4.17;;
39300;SDS011;25019;42.626;23.380;2023-09-30T03:53:44;8.40;;;4.60;;
39300;SDS011;25019;42.626;23.380;2023-09-30T03:56:10;7.87;;;4.57;;
39300;SDS011;25019;42.626;23.380;2023-09-30T03:58:40;8.70;;;4.27;;
39300;SDS011;25019;42.626;23.380;2023-09-30T04:01:07;8.47;;;5.30;;
39300;SDS011;25019;42.626;23.380;2023-09-30T04:03:36;6.97;;;4.50;;
39300;SDS011;25019;42.626;23.380;2023-09-30T04:06:04;10.63;;;5.10;;
39300;SDS011;25019;42.626;23.380;2023-09-30T04:08:32;8.37;;;4.70;;
39300;SDS011;25019;42.626;23.380;2023-09-30T04:11:04;10.93;;;5.00;;
39300;SDS011;25019;42.626;23.380;2023-09-30T04:13:30;11.90;;;4.70;;
39300;SDS011;25019;42.626;23.380;2023-09-30T04:15:56;9.50;;;4.97;;
39300;SDS011;25019;42.626;23.380;2023-09-30T04:18:23;9.03;;;5.23;;
39300;SDS011;25019;42.626;23.380;2023-09-30T04:20:51;8.50;;;4.50;;
39300;SDS011;25019;42.626;23.380;2023-09-30T04:23:17;7.50;;;4.80;;
39300;SDS011;25019;42.626;23.380;2023-09-30T04:25:45;8.10;;;4.93;;
39300;SDS011;25019;42.626;23.380;2023-09-30T04:28:12;5.70;;;4.70;;
39300;SDS011;25019;42.626;23.380;2023-09-30T04:30:39;10.83;;;5.90;;
39300;SDS011;25019;42.626;23.380;2023-09-30T04:33:05;9.10;;;5.30;;
39300;SDS011;25019;42.626;23.380;2023-09-30T04:35:31;7.20;;;5.60;;
39300;SDS011;25019;42.626;23.380;2023-09-30T04:37:56;8.97;;;5.07;;
39300;SDS011;25019;42.626;23.380;2023-09-30T04:40:29;15.13;;;11.43;;
39300;SDS011;25019;42.626;23.380;2023-09-30T04:42:55;8.27;;;5.50;;
39300;SDS011;25019;42.626;23.380;2023-09-30T04:45:26;8.83;;;5.37;;
39300;SDS011;25019;42.626;23.380;2023-09-30T04:47:52;8.33;;;5.63;;
39300;SDS011;25019;42.626;23.380;2023-09-30T04:50:20;8.47;;;5.67;;
39300;SDS011;25019;42.626;23.380;2023-09-30T04:52:47;12.17;;;5.70;;
39300;SDS011;25019;42.626;23.380;2023-09-30T04:55:16;6.57;;;5.10;;
39300;SDS011;25019;42.626;23.380;2023-09-30T04:57:46;7.50;;;5.33;;
39300;SDS011;25019;42.626;23.380;2023-09-30T05:00:16;9.40;;;5.50;;
39300;SDS011;25019;42.626;23.380;2023-09-30T05:02:47;7.77;;;5.70;;
39300;SDS011;25019;42.626;23.380;2023-09-30T05:05:13;7.40;;;5.43;;
39300;SDS011;25019;42.626;23.380;2023-09-30T05:07:40;11.83;;;5.47;;
39300;SDS011;25019;42.626;23.380;2023-09-30T05:10:07;9.20;;;5.50;;
39300;SDS011;25019;42.626;23.380;2023-09-30T05:12:38;14.07;;;6.07;;
39300;SDS011;25019;42.626;23.380;2023-09-30T05:15:04;7.93;;;4.90;;
39300;SDS011;25019;42.626;23.380;2023-09-30T05:17:33;12.70;;;5.77;;
39300;SDS011;25019;42.626;23.380;2023-09-30T05:19:59;15.03;;;5.87;;
39300;SDS011;25019;42.626;23.380;2023-09-30T05:22:24;8.07;;;4.97;;
39300;SDS011;25019;42.626;23.380;2023-09-30T05:24:51;15.03;;;10.80;;
39300;SDS011;25019;42.626;23.380;2023-09-30T05:27:17;11.90;;;6.17;;
39300;SDS011;25019;42.626;23.380;2023-09-30T05:29:43;8.37;;;5.60;;
39300;SDS011;25019;42.626;23.380;2023-09-30T05:32:09;9.50;;;5.93;;
39300;SDS011;25019;42.626;23.380;2023-09-30T05:34:34;9.30;;;5.50;;
39300;SDS011;25019;42.626;23.380;2023-09-30T05:37:00;10.37;;;5.70;;
39300;SDS011;25019;42.626;23.380;2023-09-30T05:39:26;9.47;;;5.70;;
39300;SDS011;25019;42.626;23.380;2023-09-30T05:41:54;9.03;;;6.23;;
39300;SDS011;25019;42.626;23.380;2023-09-30T05:44:20;10.83;;;5.57;;
39300;SDS011;25019;42.626;23.380;2023-09-30T05:46:46;10.57;;;6.17;;
39300;SDS011;25019;42.626;23.380;2023-09-30T05:49:12;53.43;;;16.17;;
39300;SDS011;25019;42.626;23.380;2023-09-30T05:51:39;13.70;;;6.83;;
39300;SDS011;25019;42.626;23.380;2023-09-30T05:54:06;10.27;;;5.80;;
39300;SDS011;25019;42.626;23.380;2023-09-30T05:56:33;17.13;;;7.97;;
39300;SDS011;25019;42.626;23.380;2023-09-30T05:58:58;7.97;;;5.73;;
39300;SDS011;25019;42.626;23.380;2023-09-30T06:01:24;13.60;;;6.70;;
39300;SDS011;25019;42.626;23.380;2023-09-30T06:03:49;10.63;;;6.83;;
39300;SDS011;25019;42.626;23.380;2023-09-30T06:06:15;8.23;;;6.40;;
39300;SDS011;25019;42.626;23.380;2023-09-30T06:08:42;11.80;;;8.50;;
39300;SDS011;25019;42.626;23.380;2023-09-30T06:11:17;13.83;;;7.83;;
39300;SDS011;25019;42.626;23.380;2023-09-30T06:13:44;10.63;;;8.23;;
39300;SDS011;25019;42.626;23.380;2023-09-30T06:16:12;12.63;;;8.83;;
39300;SDS011;25019;42.626;23.380;2023-09-30T06:18:38;15.63;;;10.00;;
39300;SDS011;25019;42.626;23.380;2023-09-30T06:21:03;16.13;;;9.70;;
39300;SDS011;25019;42.626;23.380;2023-09-30T06:23:29;12.43;;;8.10;;
39300;SDS011;25019;42.626;23.380;2023-09-30T06:25:56;17.30;;;8.27;;
39300;SDS011;25019;42.626;23.380;2023-09-30T06:28:22;15.83;;;9.17;;
39300;SDS011;25019;42.626;23.380;2023-09-30T06:30:54;13.23;;;7.03;;
39300;SDS011;25019;42.626;23.380;2023-09-30T06:33:20;16.30;;;6.80;;
39300;SDS011;25019;42.626;23.380;2023-09-30T06:35:46;12.37;;;6.37;;
39300;SDS011;25019;42.626;23.380;2023-09-30T06:38:18;12.40;;;6.50;;
39300;SDS011;25019;42.626;23.380;2023-09-30T06:40:47;14.60;;;6.23;;
39300;SDS011;25019;42.626;23.380;2023-09-30T06:43:13;6.93;;;4.87;;
39300;SDS011;25019;42.626;23.380;2023-09-30T06:45:43;11.67;;;5.47;;
39300;SDS011;25019;42.626;23.380;2023-09-30T06:48:10;14.00;;;5.93;;
39300;SDS011;25019;42.626;23.380;2023-09-30T06:50:44;9.33;;;5.50;;
39300;SDS011;25019;42.626;23.380;2023-09-30T06:53:11;8.77;;;5.23;;
39300;SDS011;25019;42.626;23.380;2023-09-30T06:55:38;12.77;;;7.03;;
39300;SDS011;25019;42.626;23.380;2023-09-30T06:58:04;15.63;;;7.60;;
39300;SDS011;25019;42.626;23.380;2023-09-30T07:00:33;8.60;;;5.83;;
39300;SDS011;25019;42.626;23.380;2023-09-30T07:03:00;11.33;;;5.90;;
39300;SDS011;25019;42.626;23.380;2023-09-30T07:05:26;11.90;;;5.97;;
39300;SDS011;25019;42.626;23.380;2023-09-30T07:07:53;11.97;;;6.30;;
39300;SDS011;25019;42.626;23.380;2023-09-30T07:10:19;10.00;;;5.80;;
39300;SDS011;25019;42.626;23.380;2023-09-30T07:12:44;10.07;;;5.90;;
39300;SDS011;25019;42.626;23.380;2023-09-30T07:15:10;9.90;;;6.17;;
39300;SDS011;25019;42.626;23.380;2023-09-30T07:17:36;11.10;;;6.30;;
39300;SDS011;25019;42.626;23.380;2023-09-30T07:20:02;10.47;;;6.37;;
39300;SDS011;25019;42.626;23.380;2023-09-30T07:22:30;12.00;;;5.67;;
39300;SDS011;25019;42.626;23.380;2023-09-30T07:24:56;8.60;;;4.37;;
39300;SDS011;25019;42.626;23.380;2023-09-30T07:27:23;12.57;;;5.83;;
39300;SDS011;25019;42.626;23.380;2023-09-30T07:29:49;11.47;;;5.97;;
39300;SDS011;25019;42.626;23.380;2023-09-30T07:32:14;12.50;;;4.87;;
39300;SDS011;25019;42.626;23.380;2023-09-30T07:34:40;9.80;;;5.20;;
39300;SDS011;25019;42.626;23.380;2023-09-30T07:37:06;8.60;;;4.67;;
39300;SDS011;25019;42.626;23.380;2023-09-30T07:39:31;10.27;;;4.63;;
39300;SDS011;25019;42.626;23.380;2023-09-30T07:41:57;8.57;;;4.97;;
39300;SDS011;25019;42.626;23.380;2023-09-30T07:44:23;12.90;;;5.43;;
39300;SDS011;25019;42.626;23.380;2023-09-30T07:46:48;8.07;;;4.27;;
39300;SDS011;25019;42.626;23.380;2023-09-30T07:49:14;10.77;;;5.53;;
39300;SDS011;25019;42.626;23.380;2023-09-30T07:51:40;12.43;;;4.73;;
39300;SDS011;25019;42.626;23.380;2023-09-30T07:54:05;10.53;;;4.20;;
39300;SDS011;25019;42.626;23.380;2023-09-30T07:56:31;13.10;;;4.73;;
39300;SDS011;25019;42.626;23.380;2023-09-30T07:58:57;6.67;;;4.37;;
39300;SDS011;25019;42.626;23.380;2023-09-30T08:01:22;9.90;;;4.03;;
39300;SDS011;25019;42.626;23.380;2023-09-30T08:03:48;9.77;;;4.07;;
39300;SDS011;25019;42.626;23.380;2023-09-30T08:06:14;10.00;;;4.10;;
39300;SDS011;25019;42.626;23.380;2023-09-30T08:08:39;6.07;;;4.20;;
39300;SDS011;25019;42.626;23.380;2023-09-30T08:11:06;9.17;;;4.20;;
39300;SDS011;25019;42.626;23.380;2023-09-30T08:13:32;7.67;;;4.50;;
39300;SDS011;25019;42.626;23.380;2023-09-30T08:15:58;6.20;;;3.53;;
39300;SDS011;25019;42.626;23.380;2023-09-30T08:18:26;6.13;;;4.37;;
39300;SDS011;25019;42.626;23.380;2023-09-30T08:20:52;13.17;;;4.20;;
39300;SDS011;25019;42.626;23.380;2023-09-30T08:23:18;7.80;;;4.27;;
39300;SDS011;25019;42.626;23.380;2023-09-30T08:25:43;9.23;;;4.37;;
39300;SDS011;25019;42.626;23.380;2023-09-30T08:28:09;9.50;;;5.07;;
39300;SDS011;25019;42.626;23.380;2023-09-30T08:30:35;7.13;;;4.33;;
39300;SDS011;25019;42.626;23.380;2023-09-30T08:33:02;14.40;;;4.90;;
39300;SDS011;25019;42.626;23.380;2023-09-30T08:35:35;9.83;;;4.67;;
39300;SDS011;25019;42.626;23.380;2023-09-30T08:38:02;10.17;;;4.77;;
39300;SDS011;25019;42.626;23.380;2023-09-30T08:40:27;8.40;;;4.43;;
39300;SDS011;25019;42.626;23.380;2023-09-30T08:42:53;11.27;;;4.57;;
39300;SDS011;25019;42.626;23.380;2023-09-30T08:45:19;10.17;;;4.37;;
39300;SDS011;25019;42.626;23.380;2023-09-30T08:47:45;9.93;;;5.63;;
39300;SDS011;25019;42.626;23.380;2023-09-30T08:50:15;10.60;;;5.87;;
39300;SDS011;25019;42.626;23.380;2023-09-30T08:52:43;10.53;;;5.30;;
39300;SDS011;25019;42.626;23.380;2023-09-30T08:55:10;8.47;;;5.27;;
39300;SDS011;25019;42.626;23.380;2023-09-30T08:57:37;10.07;;;5.20;;
39300;SDS011;25019;42.626;23.380;2023-09-30T09:00:07;7.53;;;5.40;;
39300;SDS011;25019;42.626;23.380;2023-09-30T09:02:37;18.73;;;10.37;;
39300;SDS011;25019;42.626;23.380;2023-09-30T09:05:03;9.27;;;5.67;;
39300;SDS011;25019;42.626;23.380;2023-09-30T09:07:28;13.83;;;6.27;;
39300;SDS011;25019;42.626;23.380;2023-09-30T09:10:08;13.80;;;8.23;;
39300;SDS011;25019;42.626;23.380;2023-09-30T09:12:38;11.50;;;5.77;;
39300;SDS011;25019;42.626;23.380;2023-09-30T09:15:07;10.90;;;5.90;;
39300;SDS011;25019;42.626;23.380;2023-09-30T09:17:45;7.70;;;5.97;;
39300;SDS011;25019;42.626;23.380;2023-09-30T09:20:17;8.50;;;6.40;;
39300;SDS011;25019;42.626;23.380;2023-09-30T09:22:48;7.47;;;5.97;;
39300;SDS011;25019;42.626;23.380;2023-09-30T09:25:22;9.07;;;6.00;;
39300;SDS011;25019;42.626;23.380;2023-09-30T09:27:49;8.83;;;5.70;;
39300;SDS011;25019;42.626;23.380;2023-09-30T09:30:16;12.90;;;5.63;;
39300;SDS011;25019;42.626;23.380;2023-09-30T09:35:39;10.87;;;5.77;;
39300;SDS011;25019;42.626;23.380;2023-09-30T09:38:05;9.30;;;6.10;;
39300;SDS011;25019;42.626;23.380;2023-09-30T09:40:33;11.70;;;5.60;;
39300;SDS011;25019;42.626;23.380;2023-09-30T09:42:59;11.10;;;5.47;;
39300;SDS011;25019;42.626;23.380;2023-09-30T09:45:27;7.70;;;5.23;;
39300;SDS011;25019;42.626;23.380;2023-09-30T09:47:54;8.83;;;5.47;;
39300;SDS011;25019;42.626;23.380;2023-09-30T09:50:21;9.00;;;6.03;;
39300;SDS011;25019;42.626;23.380;2023-09-30T09:52:48;11.37;;;5.27;;
39300;SDS011;25019;42.626;23.380;2023-09-30T09:55:19;9.73;;;6.10;;
39300;SDS011;25019;42.626;23.380;2023-09-30T09:57:47;7.83;;;4.70;;
39300;SDS011;25019;42.626;23.380;2023-09-30T10:00:26;8.57;;;4.90;;
39300;SDS011;25019;42.626;23.380;2023-09-30T10:02:52;8.03;;;4.67;;
39300;SDS011;25019;42.626;23.380;2023-09-30T10:05:19;13.00;;;4.70;;
39300;SDS011;25019;42.626;23.380;2023-09-30T10:10:18;10.83;;;5.03;;
39300;SDS011;25019;42.626;23.380;2023-09-30T10:12:45;10.57;;;4.27;;
39300;SDS011;25019;42.626;23.380;2023-09-30T10:17:56;8.83;;;4.80;;
39300;SDS011;25019;42.626;23.380;2023-09-30T10:20:31;4.83;;;4.33;;
39300;SDS011;25019;42.626;23.380;2023-09-30T10:25:42;8.17;;;4.97;;
39300;SDS011;25019;42.626;23.380;2023-09-30T10:36:30;5.33;;;3.83;;
39300;SDS011;25019;42.626;23.380;2023-09-30T10:39:01;9.03;;;3.80;;
39300;SDS011;25019;42.626;23.380;2023-09-30T10:42:09;4.80;;;3.30;;
39300;SDS011;25019;42.626;23.380;2023-09-30T10:46:48;6.33;;;3.40;;
39300;SDS011;25019;42.626;23.380;2023-09-30T10:49:15;8.23;;;3.77;;
39300;SDS011;25019;42.626;23.380;2023-09-30T10:51:43;3.90;;;2.87;;
39300;SDS011;25019;42.626;23.380;2023-09-30T10:54:09;8.23;;;3.50;;
39300;SDS011;25019;42.626;23.380;2023-09-30T10:56:37;3.93;;;2.57;;
39300;SDS011;25019;42.626;23.380;2023-09-30T10:59:03;4.47;;;3.10;;
39300;SDS011;25019;42.626;23.380;2023-09-30T11:01:33;3.97;;;2.97;;
39300;SDS011;25019;42.626;23.380;2023-09-30T11:03:59;4.43;;;3.20;;
39300;SDS011;25019;42.626;23.380;2023-09-30T11:06:30;4.50;;;2.60;;
39300;SDS011;25019;42.626;23.380;2023-09-30T11:08:57;8.93;;;2.63;;
39300;SDS011;25019;42.626;23.380;2023-09-30T11:13:59;11.20;;;3.30;;
39300;SDS011;25019;42.626;23.380;2023-09-30T11:16:25;5.63;;;3.40;;
39300;SDS011;25019;42.626;23.380;2023-09-30T11:18:54;6.20;;;2.63;;
39300;SDS011;25019;42.626;23.380;2023-09-30T11:21:20;5.07;;;2.70;;
39300;SDS011;25019;42.626;23.380;2023-09-30T11:23:47;6.23;;;3.70;;
39300;SDS011;25019;42.626;23.380;2023-09-30T11:26:13;4.80;;;2.93;;
39300;SDS011;25019;42.626;23.380;2023-09-30T11:28:40;5.53;;;2.97;;
39300;SDS011;25019;42.626;23.380;2023-09-30T11:31:08;6.80;;;2.80;;
39300;SDS011;25019;42.626;23.380;2023-09-30T11:33:51;5.57;;;3.33;;
39300;SDS011;25019;42.626;23.380;2023-09-30T11:36:21;4.00;;;2.83;;
39300;SDS011;25019;42.626;23.380;2023-09-30T11:38:48;6.90;;;3.80;;
39300;SDS011;25019;42.626;23.380;2023-09-30T11:41:14;5.20;;;3.43;;
39300;SDS011;25019;42.626;23.380;2023-09-30T11:43:58;4.93;;;3.20;;
39300;SDS011;25019;42.626;23.380;2023-09-30T11:46:31;6.67;;;3.40;;
39300;SDS011;25019;42.626;23.380;2023-09-30T11:49:03;6.83;;;3.57;;
39300;SDS011;25019;42.626;23.380;2023-09-30T11:51:43;5.43;;;2.80;;
39300;SDS011;25019;42.626;23.380;2023-09-30T11:54:14;8.67;;;3.43;;
39300;SDS011;25019;42.626;23.380;2023-09-30T11:56:39;4.97;;;3.57;;
39300;SDS011;25019;42.626;23.380;2023-09-30T11:59:05;5.80;;;3.60;;
39300;SDS011;25019;42.626;23.380;2023-09-30T12:01:31;6.90;;;3.63;;
39300;SDS011;25019;42.626;23.380;2023-09-30T12:03:57;6.80;;;3.73;;
39300;SDS011;25019;42.626;23.380;2023-09-30T12:06:23;5.20;;;3.47;;
39300;SDS011;25019;42.626;23.380;2023-09-30T12:08:49;6.53;;;4.13;;
39300;SDS011;25019;42.626;23.380;2023-09-30T12:11:17;7.63;;;4.03;;
39300;SDS011;25019;42.626;23.380;2023-09-30T12:13:43;4.17;;;3.77;;
39300;SDS011;25019;42.626;23.380;2023-09-30T12:16:10;8.93;;;4.07;;
39300;SDS011;25019;42.626;23.380;2023-09-30T12:18:39;6.10;;;4.27;;
39300;SDS011;25019;42.626;23.380;2023-09-30T12:21:07;10.93;;;3.60;;
39300;SDS011;25019;42.626;23.380;2023-09-30T12:23:34;7.63;;;3.40;;
39300;SDS011;25019;42.626;23.380;2023-09-30T12:26:00;5.20;;;3.50;;
39300;SDS011;25019;42.626;23.380;2023-09-30T12:28:30;9.07;;;3.90;;
39300;SDS011;25019;42.626;23.380;2023-09-30T12:31:02;6.57;;;3.83;;
39300;SDS011;25019;42.626;23.380;2023-09-30T12:33:28;9.90;;;4.43;;
39300;SDS011;25019;42.626;23.380;2023-09-30T12:35:55;8.30;;;4.13;;
39300;SDS011;25019;42.626;23.380;2023-09-30T12:38:22;6.33;;;4.20;;
39300;SDS011;25019;42.626;23.380;2023-09-30T12:40:47;7.60;;;4.33;;
39300;SDS011;25019;42.626;23.380;2023-09-30T12:43:13;8.20;;;4.80;;
39300;SDS011;25019;42.626;23.380;2023-09-30T12:45:39;7.17;;;4.30;;
39300;SDS011;25019;42.626;23.380;2023-09-30T12:48:05;4.03;;;3.57;;
39300;SDS011;25019;42.626;23.380;2023-09-30T12:50:30;7.00;;;4.40;;
39300;SDS011;25019;42.626;23.380;2023-09-30T12:52:56;6.27;;;4.30;;
39300;SDS011;25019;42.626;23.380;2023-09-30T12:55:21;7.17;;;4.30;;
39300;SDS011;25019;42.626;23.380;2023-09-30T12:57:47;6.97;;;3.87;;
39300;SDS011;25019;42.626;23.380;2023-09-30T13:00:13;7.67;;;3.67;;
39300;SDS011;25019;42.626;23.380;2023-09-30T13:02:40;9.03;;;3.97;;
39300;SDS011;25019;42.626;23.380;2023-09-30T13:05:06;6.13;;;3.73;;
39300;SDS011;25019;42.626;23.380;2023-09-30T13:07:32;6.87;;;2.97;;
39300;SDS011;25019;42.626;23.380;2023-09-30T13:09:58;7.13;;;3.70;;
39300;SDS011;25019;42.626;23.380;2023-09-30T13:12:26;5.10;;;3.60;;
39300;SDS011;25019;42.626;23.380;2023-09-30T13:14:52;7.27;;;3.60;;
39300;SDS011;25019;42.626;23.380;2023-09-30T13:17:22;6.20;;;3.50;;
39300;SDS011;25019;42.626;23.380;2023-09-30T13:19:49;6.63;;;3.53;;
39300;SDS011;25019;42.626;23.380;2023-09-30T13:22:15;8.07;;;3.60;;
39300;SDS011;25019;42.626;23.380;2023-09-30T13:24:41;7.03;;;3.57;;
39300;SDS011;25019;42.626;23.380;2023-09-30T13:27:07;7.27;;;3.50;;
39300;SDS011;25019;42.626;23.380;2023-09-30T13:29:33;6.60;;;3.70;;
39300;SDS011;25019;42.626;23.380;2023-09-30T13:31:59;6.07;;;4.10;;
39300;SDS011;25019;42.626;23.380;2023-09-30T13:34:25;5.80;;;3.17;;
39300;SDS011;25019;42.626;23.380;2023-09-30T13:36:50;5.90;;;3.67;;
39300;SDS011;25019;42.626;23.380;2023-09-30T13:39:16;6.67;;;3.43;;
39300;SDS011;25019;42.626;23.380;2023-09-30T13:41:43;8.10;;;3.70;;
39300;SDS011;25019;42.626;23.380;2023-09-30T13:44:09;4.43;;;3.80;;
39300;SDS011;25019;42.626;23.380;2023-09-30T13:46:36;6.23;;;3.50;;
39300;SDS011;25019;42.626;23.380;2023-09-30T13:49:01;5.73;;;3.33;;
39300;SDS011;25019;42.626;23.380;2023-09-30T13:51:27;6.30;;;3.60;;
39300;SDS011;25019;42.626;23.380;2023-09-30T13:53:52;5.20;;;4.10;;
39300;SDS011;25019;42.626;23.380;2023-09-30T13:56:19;7.43;;;3.63;;
39300;SDS011;25019;42.626;23.380;2023-09-30T13:58:44;5.57;;;3.83;;
39300;SDS011;25019;42.626;23.380;2023-09-30T14:01:12;5.17;;;3.93;;
39300;SDS011;25019;42.626;23.380;2023-09-30T14:03:38;6.30;;;3.70;;
39300;SDS011;25019;42.626;23.380;2023-09-30T14:06:09;5.10;;;3.50;;
39300;SDS011;25019;42.626;23.380;2023-09-30T14:08:36;8.13;;;4.03;;
39300;SDS011;25019;42.626;23.380;2023-09-30T14:11:02;11.00;;;4.37;;
39300;SDS011;25019;42.626;23.380;2023-09-30T14:13:27;9.60;;;4.23;;
39300;SDS011;25019;42.626;23.380;2023-09-30T14:15:53;7.90;;;3.87;;
39300;SDS011;25019;42.626;23.380;2023-09-30T14:18:18;7.30;;;3.97;;
39300;SDS011;25019;42.626;23.380;2023-09-30T14:20:44;9.23;;;3.63;;
39300;SDS011;25019;42.626;23.380;2023-09-30T14:23:11;7.43;;;3.80;;
39300;SDS011;25019;42.626;23.380;2023-09-30T14:25:37;6.67;;;3.63;;
39300;SDS011;25019;42.626;23.380;2023-09-30T14:28:02;9.10;;;3.70;;
39300;SDS011;25019;42.626;23.380;2023-09-30T14:30:28;6.33;;;3.73;;
39300;SDS011;25019;42.626;23.380;2023-09-30T14:32:54;6.67;;;3.57;;
39300;SDS011;25019;42.626;23.380;2023-09-30T14:35:20;5.13;;;3.43;;
39300;SDS011;25019;42.626;23.380;2023-09-30T14:37:45;10.67;;;3.70;;
39300;SDS011;25019;42.626;23.380;2023-09-30T14:40:11;5.63;;;3.43;;
39300;SDS011;25019;42.626;23.380;2023-09-30T14:42:38;8.33;;;3.83;;
39300;SDS011;25019;42.626;23.380;2023-09-30T14:45:04;7.10;;;3.30;;
39300;SDS011;25019;42.626;23.380;2023-09-30T14:47:30;8.03;;;3.63;;
39300;SDS011;25019;42.626;23.380;2023-09-30T14:49:55;4.23;;;3.33;;
39300;SDS011;25019;42.626;23.380;2023-09-30T14:52:21;6.23;;;3.50;;
39300;SDS011;25019;42.626;23.380;2023-09-30T14:54:47;5.90;;;3.80;;